Time;durP1;ratioP1;P1;durP2;ratioP2;P2;SDS_P1;SDS_P2;PMS_P1;PMS_P2;Temp;Humidity;BMP_temperature;BMP_pressure;BME280_temperature;BME280_humidity;BME280_pressure;Samples;Min_cycle;Max_cycle;Signal;HPM_P1;HPM_P2
2022/03/04 00:00:14;;;;;;;20.67;13.77;;;;;;;3.64;47.53;101221.00;2073268;28;20173;-67
2022/03/04 00:01:15;;;;;;;19.13;13.75;;;;;;;2.97;47.88;101123.41;2073556;28;20180;-67
2022/03/04 00:02:16;;;;;;;19.57;13.77;;;;;;;3.54;47.97;101216.16;2074039;28;20710;-67
2022/03/04 00:03:16;;;;;;;23.70;16.43;;;;;;;3.65;48.53;101213.59;2073576;28;20294;-67
2022/03/04 00:04:17;;;;;;;19.30;13.70;;;;;;;3.65;47.94;101221.81;2073744;28;20226;-67
2022/03/04 00:05:18;;;;;;;20.77;14.80;;;;;;;3.21;47.62;101155.03;2073775;28;20198;-67
2022/03/04 00:06:18;;;;;;;17.77;13.50;;;;;;;3.15;47.87;101143.63;2073739;28;20170;-67
2022/03/04 00:07:19;;;;;;;19.77;14.97;;;;;;;3.18;48.04;101151.09;2073416;28;20633;-67
2022/03/04 00:08:20;;;;;;;20.50;13.73;;;;;;;3.27;47.75;101186.41;2084676;28;20176;-67
2022/03/04 00:09:21;;;;;;;23.27;14.77;;;;;;;3.62;47.88;101252.69;2090161;28;20254;-67
2022/03/04 00:10:22;;;;;;;18.73;14.98;;;;;;;2.40;48.13;101036.16;2082412;28;20315;-67
2022/03/04 00:11:22;;;;;;;18.50;13.27;;;;;;;3.52;47.62;101220.44;2081377;28;20276;-67
2022/03/04 00:12:23;;;;;;;18.83;13.63;;;;;;;3.48;47.49;101203.97;2081008;28;20214;-67
2022/03/04 00:13:23;;;;;;;22.20;14.70;;;;;;;3.59;47.96;101220.56;2081109;28;20176;-67
2022/03/04 00:14:27;;;;;;;19.60;14.60;;;;;;;3.56;47.62;101222.09;2081872;28;20173;-66
2022/03/04 00:15:28;;;;;;;20.15;14.20;;;;;;;3.47;48.13;101218.03;2081992;28;20188;-67
2022/03/04 00:16:28;;;;;;;24.00;14.67;;;;;;;3.43;48.43;101220.72;2081946;28;20260;-67
2022/03/04 00:17:29;;;;;;;19.47;14.50;;;;;;;2.53;48.04;101097.72;2081555;28;20732;-67
2022/03/04 00:18:29;;;;;;;18.03;13.63;;;;;;;3.39;48.14;101221.84;2081897;28;20729;-66
2022/03/04 00:19:30;;;;;;;17.63;13.00;;;;;;;3.37;49.34;101218.66;2081062;28;20232;-67
2022/03/04 00:20:31;;;;;;;19.77;14.17;;;;;;;3.34;48.26;101228.41;2081392;28;20173;-67
2022/03/04 00:21:41;;;;;;;19.13;13.33;;;;;;;3.33;48.04;101215.09;2081799;28;20191;-67
2022/03/04 00:22:42;;;;;;;20.42;13.65;;;;;;;3.30;48.66;101219.38;2081938;28;20913;-67
2022/03/04 00:23:42;;;;;;;20.95;13.73;;;;;;;3.21;48.36;101205.13;2082045;28;20177;-67
2022/03/04 00:24:43;;;;;;;18.67;13.60;;;;;;;2.95;48.39;101175.00;2081698;28;20181;-66
2022/03/04 00:25:44;;;;;;;17.97;14.03;;;;;;;3.20;48.92;101200.03;2081639;28;20176;-67
2022/03/04 00:26:46;;;;;;;19.27;14.40;;;;;;;3.29;49.19;101214.25;2080424;28;20242;-67
2022/03/04 00:27:46;;;;;;;19.23;13.63;;;;;;;3.16;48.60;101197.22;2081608;28;20185;-67
2022/03/04 00:28:47;;;;;;;19.80;14.27;;;;;;;2.73;48.99;101126.53;2080553;28;20189;-67
2022/03/04 00:29:47;;;;;;;19.40;14.13;;;;;;;3.24;49.20;101209.84;2073044;28;20182;-67
2022/03/04 00:30:48;;;;;;;18.27;14.27;;;;;;;1.72;49.91;100978.00;2072970;28;20177;-67
2022/03/04 00:31:48;;;;;;;19.83;14.07;;;;;;;3.21;49.23;101202.41;2075661;28;20181;-67
2022/03/04 00:32:49;;;;;;;18.27;13.93;;;;;;;2.66;49.28;101117.44;2076588;28;20529;-67
2022/03/04 00:33:50;;;;;;;18.13;13.70;;;;;;;2.97;49.25;101188.34;2073206;28;20177;-67
2022/03/04 00:34:51;;;;;;;18.17;13.48;;;;;;;3.16;49.38;101201.91;2073676;28;20261;-67
2022/03/04 00:35:54;;;;;;;17.53;12.60;;;;;;;3.12;49.55;101203.78;2073430;28;20178;-67
2022/03/04 00:36:55;;;;;;;18.52;14.57;;;;;;;3.11;49.30;101194.00;2073612;28;20201;-67
2022/03/04 00:37:56;;;;;;;18.20;14.00;;;;;;;2.75;49.64;101139.88;2073133;28;20216;-67
2022/03/04 00:38:56;;;;;;;18.40;13.43;;;;;;;3.07;50.27;101195.91;2073476;28;20232;-67
2022/03/04 00:39:57;;;;;;;19.20;12.73;;;;;;;3.03;49.72;101195.06;2073501;28;20170;-67
2022/03/04 00:40:58;;;;;;;19.70;14.07;;;;;;;2.87;49.99;101170.56;2080976;28;20177;-67
2022/03/04 00:41:59;;;;;;;19.23;13.85;;;;;;;2.96;49.63;101181.25;2080617;28;20668;-67
2022/03/04 00:42:59;;;;;;;19.23;14.10;;;;;;;1.88;49.18;101027.06;2073428;28;20275;-67
2022/03/04 00:44:00;;;;;;;19.27;13.73;;;;;;;2.99;49.90;101194.22;2073510;28;20170;-67
2022/03/04 00:45:01;;;;;;;19.03;13.73;;;;;;;2.59;50.22;101139.22;2073494;28;20261;-67
2022/03/04 00:46:01;;;;;;;18.40;13.40;;;;;;;2.55;49.61;101132.88;2077506;28;20184;-67
2022/03/04 00:47:04;;;;;;;19.27;14.17;;;;;;;2.94;49.58;101195.34;2081649;28;20196;-67
2022/03/04 00:48:04;;;;;;;19.08;13.48;;;;;;;2.94;49.28;101189.06;2080608;28;20379;-67
2022/03/04 00:49:05;;;;;;;17.70;13.63;;;;;;;2.92;48.74;101194.13;2081044;28;20173;-67
2022/03/04 00:50:06;;;;;;;22.00;13.50;;;;;;;1.44;49.31;100960.34;2081539;28;20205;-66
2022/03/04 00:51:08;;;;;;;20.67;13.45;;;;;;;2.91;48.66;101192.50;2080757;28;20734;-67
2022/03/04 00:52:08;;;;;;;19.08;13.70;;;;;;;2.92;48.81;101194.13;2080978;28;20173;-67
2022/03/04 00:53:09;;;;;;;18.93;13.77;;;;;;;2.91;48.96;101192.50;2081467;28;20267;-67
2022/03/04 00:54:09;;;;;;;19.50;13.10;;;;;;;2.94;48.93;101183.59;2081619;28;20636;-67
2022/03/04 00:55:10;;;;;;;17.93;13.27;;;;;;;2.23;48.68;101085.06;2080928;28;20181;-67
2022/03/04 00:56:12;;;;;;;18.13;12.43;;;;;;;2.92;48.87;101186.69;2080969;28;20172;-67
2022/03/04 00:57:12;;;;;;;20.42;13.15;;;;;;;2.93;49.10;101184.75;2081235;28;20187;-67
2022/03/04 00:58:13;;;;;;;18.33;12.93;;;;;;;2.94;48.98;101176.16;2080821;28;20200;-67
2022/03/04 00:59:14;;;;;;;16.80;12.53;;;;;;;2.95;49.19;101185.16;2080842;28;20260;-67
2022/03/04 01:00:15;;;;;;;18.50;12.40;;;;;;;1.96;49.18;101031.50;2080894;28;20173;-67
2022/03/04 01:01:16;;;;;;;17.55;12.50;;;;;;;1.85;49.42;101006.72;2073390;28;20595;-66
2022/03/04 01:02:16;;;;;;;19.50;13.07;;;;;;;3.04;49.06;101177.47;2081428;28;20197;-67
2022/03/04 01:03:17;;;;;;;16.53;12.47;;;;;;;3.04;48.84;101181.00;2089548;28;20466;-67
2022/03/04 01:04:18;;;;;;;20.03;13.20;;;;;;;3.01;49.08;101181.75;2084848;28;20182;-67
2022/03/04 01:05:18;;;;;;;17.13;11.90;;;;;;;2.92;48.30;101164.78;2081536;28;20204;-67
2022/03/04 01:06:19;;;;;;;16.80;12.87;;;;;;;3.04;48.88;101181.00;2081419;28;20177;-67
2022/03/04 01:07:19;;;;;;;18.73;12.57;;;;;;;3.08;48.67;101186.53;2081115;28;20200;-67
2022/03/04 01:08:20;;;;;;;21.17;13.80;;;;;;;2.45;48.43;101092.47;2081509;28;20647;-68
2022/03/04 01:09:21;;;;;;;18.17;13.40;;;;;;;3.07;48.85;101174.78;2081456;28;20177;-67
2022/03/04 01:10:22;;;;;;;17.30;13.17;;;;;;;3.07;48.58;101184.94;2081473;28;20267;-67
2022/03/04 01:11:22;;;;;;;16.77;11.57;;;;;;;3.07;48.72;101168.50;2081349;28;20177;-67
2022/03/04 01:12:23;;;;;;;18.17;12.87;;;;;;;3.06;48.63;101177.88;2081150;28;20674;-67
2022/03/04 01:13:24;;;;;;;19.30;12.90;;;;;;;3.07;48.93;101174.78;2081194;28;20170;-67
2022/03/04 01:14:24;;;;;;;17.15;12.63;;;;;;;3.07;48.72;101174.78;2081181;28;20647;-67
2022/03/04 01:15:25;;;;;;;16.37;12.60;;;;;;;2.60;48.97;101099.75;2081467;28;20674;-67
2022/03/04 01:16:25;;;;;;;17.73;12.93;;;;;;;2.86;48.37;101146.28;2081101;28;20208;-67
2022/03/04 01:17:26;;;;;;;18.27;11.90;;;;;;;3.00;48.40;101165.69;2080824;28;20177;-67
2022/03/04 01:18:27;;;;;;;16.30;12.47;;;;;;;2.47;48.49;101079.22;2080612;28;20619;-67
2022/03/04 01:19:27;;;;;;;18.77;13.27;;;;;;;2.57;48.26;101114.19;2080432;28;20169;-67
2022/03/04 01:20:29;;;;;;;18.90;12.13;;;;;;;2.96;48.79;101167.56;2080760;28;20183;-67
2022/03/04 01:21:29;;;;;;;17.50;12.30;;;;;;;2.93;48.75;101171.81;2081191;28;20173;-67
2022/03/04 01:22:30;;;;;;;17.53;13.33;;;;;;;2.92;48.79;101181.19;2081284;28;20276;-67
2022/03/04 01:23:31;;;;;;;17.30;12.77;;;;;;;2.92;48.42;101164.78;2081174;28;20200;-67
2022/03/04 01:24:31;;;;;;;17.97;12.40;;;;;;;2.90;48.89;101167.09;2081305;28;20177;-67
2022/03/04 01:25:32;;;;;;;18.97;12.50;;;;;;;2.89;48.61;101157.31;2081341;28;20180;-67
2022/03/04 01:26:33;;;;;;;19.80;12.57;;;;;;;2.36;48.31;101081.78;2081099;28;20177;-67
2022/03/04 01:27:34;;;;;;;17.67;12.23;;;;;;;2.86;48.84;101158.03;2080798;28;20570;-67
2022/03/04 01:28:34;;;;;;;17.00;12.23;;;;;;;2.81;48.52;101161.09;2080682;28;20658;-67
2022/03/04 01:29:35;;;;;;;18.80;12.90;;;;;;;2.64;48.65;101136.97;2080652;28;20172;-67
2022/03/04 01:30:35;;;;;;;17.97;12.80;;;;;;;2.05;49.08;101043.00;2081215;28;20188;-67
2022/03/04 01:31:36;;;;;;;22.47;12.63;;;;;;;2.74;49.06;101158.25;2081200;28;20239;-67
2022/03/04 01:32:37;;;;;;;16.37;12.07;;;;;;;1.94;49.24;101029.13;2081122;28;20196;-67
2022/03/04 01:33:37;;;;;;;15.80;12.03;;;;;;;2.49;48.80;101121.47;2081141;28;20285;-67
2022/03/04 01:34:38;;;;;;;17.03;12.23;;;;;;;2.71;48.85;101147.22;2081349;28;20612;-67
2022/03/04 01:35:39;;;;;;;18.47;13.23;;;;;;;2.71;49.56;101150.75;2081297;28;20169;-67
2022/03/04 01:36:40;;;;;;;17.98;12.48;;;;;;;2.68;49.34;101147.97;2081208;28;20243;-67
2022/03/04 01:37:41;;;;;;;18.33;12.57;;;;;;;1.51;49.14;100960.44;2080689;28;20257;-67
2022/03/04 01:38:41;;;;;;;16.47;11.77;;;;;;;2.37;48.77;101094.31;2081244;28;20184;-67
2022/03/04 01:39:42;;;;;;;18.33;12.73;;;;;;;2.41;49.22;101106.09;2081215;28;21141;-67
2022/03/04 01:40:43;;;;;;;16.30;11.70;;;;;;;2.68;49.12;101146.00;2081243;28;20256;-67
2022/03/04 01:41:43;;;;;;;18.43;12.77;;;;;;;2.70;49.49;101154.66;2081144;28;20180;-66
2022/03/04 01:42:44;;;;;;;15.40;11.80;;;;;;;2.67;49.22;101149.91;2081101;28;20585;-67
2022/03/04 01:43:44;;;;;;;17.40;12.90;;;;;;;2.68;49.34;101147.97;2081278;28;20169;-67
2022/03/04 01:44:45;;;;;;;18.97;12.13;;;;;;;2.68;49.47;101150.72;2081011;28;20176;-67
2022/03/04 01:45:46;;;;;;;15.18;11.23;;;;;;;2.67;49.12;101141.69;2079004;28;20180;-67
2022/03/04 01:46:47;;;;;;;15.73;11.50;;;;;;;2.68;49.03;101150.72;2072985;28;20729;-67
2022/03/04 01:47:48;;;;;;;15.30;11.87;;;;;;;2.43;49.56;101105.72;2072506;28;20182;-67
2022/03/04 01:48:48;;;;;;;16.63;11.50;;;;;;;2.69;48.46;101144.88;2073059;28;20267;-67
2022/03/04 01:49:49;;;;;;;19.17;11.93;;;;;;;2.72;50.48;101146.09;2078528;28;20654;-67
2022/03/04 01:50:51;;;;;;;17.50;12.10;;;;;;;2.66;48.83;101153.00;2081034;28;20256;-67
2022/03/04 01:51:52;;;;;;;16.27;11.35;;;;;;;2.15;48.73;101097.03;2080992;28;20173;-67
2022/03/04 01:52:53;;;;;;;18.03;12.03;;;;;;;2.65;48.95;101144.03;2081018;28;20201;-67
2022/03/04 01:53:54;;;;;;;15.05;11.65;;;;;;;2.60;49.15;101146.25;2080880;28;20213;-67
2022/03/04 01:54:55;;;;;;;17.05;12.07;;;;;;;2.63;49.47;101142.81;2081114;28;20188;-67
2022/03/04 01:55:55;;;;;;;17.30;11.40;;;;;;;1.58;49.45;100994.13;2080849;28;20681;-67
2022/03/04 01:56:57;;;;;;;16.10;11.23;;;;;;;2.54;49.42;101142.25;2080566;28;20191;-67
2022/03/04 01:57:58;;;;;;;17.42;12.38;;;;;;;2.50;49.28;101119.53;2079812;28;20590;-67
2022/03/04 01:58:58;;;;;;;15.15;11.85;;;;;;;2.56;49.40;101148.94;2081146;28;20177;-67
2022/03/04 01:59:59;;;;;;;15.47;11.40;;;;;;;2.63;48.63;101140.06;2081062;28;20303;-67
2022/03/04 02:01:00;;;;;;;16.60;10.67;;;;;;;2.39;48.96;101107.63;2081128;28;20238;-67
2022/03/04 02:02:00;;;;;;;15.80;12.00;;;;;;;2.54;48.98;101150.47;2081050;28;20559;-67
2022/03/04 02:03:01;;;;;;;14.10;11.23;;;;;;;2.54;49.60;101139.53;2081164;28;20587;-67
2022/03/04 02:04:02;;;;;;;17.60;11.63;;;;;;;2.39;49.10;101111.16;2081002;28;20177;-67
2022/03/04 02:05:03;;;;;;;17.10;11.90;;;;;;;1.89;48.88;101042.28;2081065;28;20223;-67
2022/03/04 02:06:04;;;;;;;19.58;12.05;;;;;;;1.97;49.01;101055.75;2081043;28;20179;-67
2022/03/04 02:07:04;;;;;;;16.23;11.93;;;;;;;2.43;49.48;101122.94;2081132;28;20662;-67
2022/03/04 02:08:06;;;;;;;15.23;11.20;;;;;;;2.57;49.71;101136.06;2080474;28;20664;-67
2022/03/04 02:09:06;;;;;;;17.63;12.00;;;;;;;2.55;49.43;101141.91;2080429;28;20200;-67
2022/03/04 02:10:08;;;;;;;16.47;11.63;;;;;;;2.63;49.12;101143.59;2080380;28;20181;-67
2022/03/04 02:11:09;;;;;;;18.00;11.50;;;;;;;1.68;49.39;100996.28;2081056;28;20222;-67
2022/03/04 02:12:10;;;;;;;17.53;11.23;;;;;;;2.66;48.77;101142.06;2080347;28;20975;-67
2022/03/04 02:13:10;;;;;;;18.70;12.50;;;;;;;1.26;48.48;100920.97;2080369;28;20180;-67
2022/03/04 02:14:12;;;;;;;19.40;12.57;;;;;;;1.87;49.29;101020.03;2080968;28;20184;-67
2022/03/04 02:15:12;;;;;;;18.70;11.07;;;;;;;2.69;49.28;101146.81;2081063;28;20204;-67
2022/03/04 02:16:21;;;;;;;18.00;12.50;;;;;;;2.65;49.68;101144.03;2081002;28;20682;-67
2022/03/04 02:17:22;;;;;;;23.10;12.18;;;;;;;1.83;49.16;101005.50;2080617;28;20201;-67
2022/03/04 02:18:22;;;;;;;20.87;12.37;;;;;;;1.53;49.86;100966.31;2081112;28;20189;-67
2022/03/04 02:19:23;;;;;;;18.70;12.17;;;;;;;2.56;49.62;101148.19;2081016;28;20169;-67
2022/03/04 02:20:30;;;;;;;19.20;12.50;;;;;;;2.53;48.98;101144.22;2080296;28;20181;-67
2022/03/04 02:21:32;;;;;;;18.25;12.00;;;;;;;2.54;48.49;101134.06;2080405;28;20288;-67
2022/03/04 02:22:33;;;;;;;18.83;12.45;;;;;;;2.16;48.49;101084.97;2081087;28;20535;-67
2022/03/04 02:23:33;;;;;;;17.88;11.25;;;;;;;2.49;48.77;101132.44;2080817;28;20355;-67
2022/03/04 02:24:34;;;;;;;16.63;11.67;;;;;;;2.50;48.85;101123.06;2080278;28;20250;-67
2022/03/04 02:25:34;;;;;;;17.07;11.97;;;;;;;1.40;48.27;100951.28;2080363;28;20264;-67
2022/03/04 02:26:36;;;;;;;20.33;12.03;;;;;;;1.71;48.82;100983.84;2080884;28;20188;-67
2022/03/04 02:27:36;;;;;;;16.02;11.15;;;;;;;2.64;48.54;101130.69;2080464;28;20179;-67
2022/03/04 02:28:37;;;;;;;19.47;11.50;;;;;;;1.52;48.65;100940.16;2081081;28;20173;-67
2022/03/04 02:29:38;;;;;;;16.23;11.90;;;;;;;2.81;48.34;101147.41;2081127;28;20173;-67
2022/03/04 02:30:38;;;;;;;16.40;11.60;;;;;;;2.86;48.12;101166.25;2081012;28;20184;-67
2022/03/04 02:31:39;;;;;;;16.47;11.87;;;;;;;2.90;47.97;101139.72;2082116;28;20196;-67
2022/03/04 02:32:40;;;;;;;15.50;11.30;;;;;;;2.98;47.92;101146.88;2082474;28;20173;-67
2022/03/04 02:33:41;;;;;;;15.77;11.43;;;;;;;3.00;47.90;101147.31;2082501;28;20184;-67
2022/03/04 02:34:41;;;;;;;18.20;11.80;;;;;;;3.01;47.71;101134.41;2082466;28;20185;-67
2022/03/04 02:35:42;;;;;;;15.03;11.10;;;;;;;2.94;47.84;101120.63;2082581;28;20177;-67
2022/03/04 02:36:43;;;;;;;19.20;11.93;;;;;;;2.87;47.43;101113.06;2082546;28;20211;-67
2022/03/04 02:37:44;;;;;;;16.70;11.30;;;;;;;3.13;47.47;101145.94;2082132;28;21011;-67
2022/03/04 02:38:44;;;;;;;20.07;12.57;;;;;;;3.17;47.38;101140.50;2082639;28;20177;-67
2022/03/04 02:39:45;;;;;;;16.93;11.50;;;;;;;3.16;47.79;101145.19;2082513;28;20188;-67
2022/03/04 02:40:46;;;;;;;17.67;11.77;;;;;;;2.61;47.96;101063.81;2082590;28;20177;-67
2022/03/04 02:41:46;;;;;;;19.67;12.17;;;;;;;3.17;47.71;101146.78;2082411;28;20197;-67
2022/03/04 02:42:47;;;;;;;15.40;10.93;;;;;;;2.88;47.87;101119.34;2082579;28;20181;-67
2022/03/04 02:43:47;;;;;;;14.63;11.50;;;;;;;3.12;48.03;101138.06;2082356;28;20173;-67
2022/03/04 02:44:48;;;;;;;17.07;11.70;;;;;;;3.07;48.03;101141.13;2082415;28;20177;-67
2022/03/04 02:45:49;;;;;;;17.70;11.80;;;;;;;3.08;48.05;101150.94;2082442;28;20608;-67
2022/03/04 02:46:49;;;;;;;17.98;11.80;;;;;;;2.45;48.32;101046.78;2082513;28;20178;-67
2022/03/04 02:47:50;;;;;;;18.60;11.23;;;;;;;2.43;48.62;101049.09;2082413;28;20204;-67
2022/03/04 02:48:51;;;;;;;16.43;11.40;;;;;;;3.04;49.26;101144.63;2082492;28;20188;-67
2022/03/04 02:49:51;;;;;;;16.43;10.83;;;;;;;3.01;47.96;101146.16;2082434;28;20333;-67
2022/03/04 02:50:52;;;;;;;17.93;12.27;;;;;;;2.52;47.89;101068.75;2082581;28;20224;-67
2022/03/04 02:51:52;;;;;;;16.60;11.20;;;;;;;3.00;47.92;101146.50;2082498;28;20169;-67
2022/03/04 02:52:53;;;;;;;19.97;12.53;;;;;;;3.02;48.75;101141.44;2082392;28;20173;-67
2022/03/04 02:53:53;;;;;;;16.77;11.53;;;;;;;3.00;48.05;101139.09;2082284;28;20177;-67
2022/03/04 02:54:54;;;;;;;17.10;11.37;;;;;;;3.01;48.29;101137.13;2082485;28;20265;-67
2022/03/04 02:55:54;;;;;;;16.17;11.30;;;;;;;3.00;48.04;101141.03;2082165;28;20188;-67
2022/03/04 02:56:55;;;;;;;17.67;12.27;;;;;;;2.89;46.69;101123.66;2082499;28;20179;-67
2022/03/04 02:57:55;;;;;;;16.47;11.43;;;;;;;3.01;47.05;101142.59;2081955;28;20177;-67
2022/03/04 02:58:56;;;;;;;18.63;11.67;;;;;;;1.68;46.91;100941.63;2082499;28;20628;-67
2022/03/04 02:59:56;;;;;;;15.50;11.07;;;;;;;2.04;46.98;100997.66;2081638;28;20185;-67
2022/03/04 03:00:57;;;;;;;14.97;10.90;;;;;;;2.31;46.81;101048.50;2081903;28;20168;-67
2022/03/04 03:01:57;;;;;;;17.63;11.90;;;;;;;2.97;46.95;101137.09;2082298;28;20173;-67
2022/03/04 03:02:58;;;;;;;18.50;12.30;;;;;;;2.99;47.24;101139.47;2082323;28;20643;-67
2022/03/04 03:03:58;;;;;;;16.07;12.00;;;;;;;3.00;46.88;101138.31;2082339;28;20177;-67
2022/03/04 03:04:59;;;;;;;19.60;11.50;;;;;;;2.04;48.04;100982.06;2082411;28;20177;-67
2022/03/04 03:06:00;;;;;;;17.20;11.67;;;;;;;2.45;46.70;101049.50;2082349;28;20184;-67
2022/03/04 03:07:00;;;;;;;15.83;11.80;;;;;;;1.72;47.24;100947.97;2082394;28;20176;-67
2022/03/04 03:08:01;;;;;;;20.30;13.03;;;;;;;3.07;46.80;101141.94;2081806;28;20187;-67
2022/03/04 03:09:02;;;;;;;17.83;12.50;;;;;;;3.01;46.46;101129.72;2081709;28;20184;-67
2022/03/04 03:10:04;;;;;;;16.33;11.93;;;;;;;3.15;46.33;101142.81;2081573;28;20572;-67
2022/03/04 03:11:05;;;;;;;17.70;11.65;;;;;;;3.14;46.16;101139.28;2082326;28;20244;-67
2022/03/04 03:12:05;;;;;;;18.47;12.37;;;;;;;2.88;46.51;101095.50;2082306;28;20243;-67
2022/03/04 03:13:06;;;;;;;16.53;11.40;;;;;;;3.23;46.13;101134.34;2082329;28;20196;-67
2022/03/04 03:14:06;;;;;;;19.37;11.97;;;;;;;3.25;46.11;101139.44;2082196;28;20230;-67
2022/03/04 03:15:08;;;;;;;18.50;13.07;;;;;;;2.35;46.17;101000.91;2082318;28;20248;-67
2022/03/04 03:16:09;;;;;;;19.23;12.25;;;;;;;3.30;46.16;101139.94;2081635;28;20173;-67
2022/03/04 03:17:09;;;;;;;19.97;12.37;;;;;;;3.36;46.32;101138.44;2081501;28;20207;-67
2022/03/04 03:18:10;;;;;;;17.33;12.20;;;;;;;3.47;45.92;101138.56;2082024;28;20188;-67
2022/03/04 03:19:10;;;;;;;18.90;12.27;;;;;;;2.57;46.12;101005.53;2082385;28;20181;-67
2022/03/04 03:20:11;;;;;;;18.33;12.97;;;;;;;3.47;46.16;101144.84;2082296;28;20177;-67
2022/03/04 03:21:12;;;;;;;17.30;12.10;;;;;;;3.47;45.92;101139.34;2082377;28;20177;-67
2022/03/04 03:22:14;;;;;;;16.30;11.83;;;;;;;3.50;45.63;101133.13;2082365;28;20624;-67
2022/03/04 03:23:14;;;;;;;16.80;12.07;;;;;;;3.48;45.33;101146.41;2082166;28;20223;-67
2022/03/04 03:24:15;;;;;;;17.63;12.37;;;;;;;3.52;45.86;101138.22;2082279;28;20169;-67
2022/03/04 03:25:16;;;;;;;15.93;12.03;;;;;;;3.54;46.39;101139.44;2082229;28;20212;-67
2022/03/04 03:26:16;;;;;;;17.57;12.60;;;;;;;3.53;45.62;101143.34;2082127;28;20183;-67
2022/03/04 03:27:17;;;;;;;18.40;12.93;;;;;;;3.01;45.56;101061.28;2081193;28;20223;-67
2022/03/04 03:28:17;;;;;;;18.77;12.60;;;;;;;3.36;45.04;101112.97;2081718;28;20197;-67
2022/03/04 03:29:18;;;;;;;17.80;12.33;;;;;;;3.56;45.19;101150.03;2082265;28;20176;-67
2022/03/04 03:30:18;;;;;;;16.67;11.70;;;;;;;3.18;45.62;101099.06;2082274;28;20165;-67
2022/03/04 03:31:19;;;;;;;18.77;12.83;;;;;;;3.25;44.95;101090.94;2082167;28;20647;-67
2022/03/04 03:32:20;;;;;;;17.23;12.87;;;;;;;3.64;44.79;101148.97;2082183;28;20746;-67
2022/03/04 03:33:20;;;;;;;18.97;12.33;;;;;;;2.50;44.98;100961.66;2082030;28;20173;-68
2022/03/04 03:34:21;;;;;;;21.23;13.13;;;;;;;2.97;44.78;101037.75;2082129;28;20181;-67
2022/03/04 03:35:22;;;;;;;19.83;13.27;;;;;;;2.26;44.84;100923.78;2082113;28;20262;-67
2022/03/04 03:36:22;;;;;;;20.70;13.13;;;;;;;3.73;44.82;101146.72;2082200;28;20189;-67
2022/03/04 03:37:23;;;;;;;18.33;12.20;;;;;;;3.76;44.71;101146.78;2081078;28;20231;-67
2022/03/04 03:38:24;;;;;;;19.93;13.10;;;;;;;3.07;45.17;101037.06;2081625;28;20248;-67
2022/03/04 03:39:24;;;;;;;17.43;13.13;;;;;;;3.55;44.31;101110.09;2081197;28;20185;-67
2022/03/04 03:40:25;;;;;;;20.30;13.47;;;;;;;3.79;44.13;101151.50;2090417;28;20263;-67
2022/03/04 03:41:25;;;;;;;18.17;12.63;;;;;;;3.25;43.91;101062.75;2088159;28;20184;-67
2022/03/04 03:42:26;;;;;;;20.50;12.77;;;;;;;3.79;44.08;101151.50;2082092;28;20172;-67
2022/03/04 03:43:26;;;;;;;17.90;12.70;;;;;;;3.31;44.17;101074.97;2076852;28;20236;-67
2022/03/04 03:44:27;;;;;;;20.43;13.67;;;;;;;3.76;44.44;101146.78;2082016;28;20226;-67
2022/03/04 03:45:28;;;;;;;17.97;12.57;;;;;;;3.06;44.38;101041.78;2078260;28;20559;-66
2022/03/04 03:46:28;;;;;;;17.73;12.87;;;;;;;3.51;44.44;101101.03;2078776;28;20196;-67
2022/03/04 03:47:29;;;;;;;19.60;12.97;;;;;;;3.86;44.66;101151.56;2077214;28;20590;-67
2022/03/04 03:48:29;;;;;;;18.80;12.83;;;;;;;3.87;44.42;101150.44;2081983;28;20176;-67
2022/03/04 03:49:30;;;;;;;18.83;12.90;;;;;;;3.92;44.17;101150.09;2078721;28;20174;-67
2022/03/04 03:50:31;;;;;;;18.03;12.80;;;;;;;3.38;43.99;101073.09;2074016;28;20604;-67
2022/03/04 03:51:33;;;;;;;23.57;14.07;;;;;;;3.86;44.27;101142.56;2073165;28;20286;-67
2022/03/04 03:52:33;;;;;;;17.83;13.13;;;;;;;3.87;43.94;101149.63;2073391;28;20232;-67
2022/03/04 03:53:34;;;;;;;20.07;13.20;;;;;;;3.89;43.68;101148.09;2073798;28;20673;-67
2022/03/04 03:54:35;;;;;;;17.93;12.37;;;;;;;3.49;44.18;101092.41;2088461;28;20188;-67
2022/03/04 03:55:35;;;;;;;21.13;13.00;;;;;;;3.41;44.67;101113.44;2090251;28;20176;-66
2022/03/04 03:56:36;;;;;;;18.57;13.40;;;;;;;3.81;44.23;101145.66;2090163;28;20276;-67
2022/03/04 03:57:36;;;;;;;19.03;12.93;;;;;;;2.93;44.33;101020.50;2089012;28;20188;-67
2022/03/04 03:58:37;;;;;;;17.20;13.10;;;;;;;3.67;44.82;101134.50;2082020;28;20181;-67
2022/03/04 03:59:38;;;;;;;16.57;12.40;;;;;;;3.76;44.24;101140.50;2082125;28;20181;-67
2022/03/04 04:00:38;;;;;;;20.27;13.60;;;;;;;3.86;45.03;101159.78;2081907;28;20647;-67
2022/03/04 04:01:39;;;;;;;24.73;14.00;;;;;;;3.88;44.81;101154.75;2082019;28;20176;-67
2022/03/04 04:02:40;;;;;;;16.90;12.77;;;;;;;3.79;44.91;101154.25;2081981;28;20494;-67
2022/03/04 04:03:40;;;;;;;19.27;12.73;;;;;;;3.72;44.90;101134.19;2081907;28;20197;-67
2022/03/04 04:04:41;;;;;;;23.57;14.10;;;;;;;3.87;44.62;101160.59;2081951;28;20400;-67
2022/03/04 04:05:42;;;;;;;19.83;13.10;;;;;;;3.89;45.26;101159.06;2081897;28;20185;-67
2022/03/04 04:06:44;;;;;;;22.93;14.07;;;;;;;3.61;45.35;101117.63;2088845;28;20724;-67
2022/03/04 04:07:44;;;;;;;26.02;14.45;;;;;;;3.63;45.35;101126.25;2089802;28;20262;-67
2022/03/04 04:08:45;;;;;;;18.80;13.07;;;;;;;3.81;44.95;101154.69;2090174;28;20185;-67
2022/03/04 04:09:45;;;;;;;22.40;13.93;;;;;;;3.47;45.36;101119.38;2087750;28;20228;-67
2022/03/04 04:10:46;;;;;;;23.87;13.33;;;;;;;2.59;45.29;100991.47;2085529;28;20230;-67
2022/03/04 04:11:46;;;;;;;19.67;13.10;;;;;;;3.60;46.74;101170.06;2090107;28;20318;-67
2022/03/04 04:12:47;;;;;;;18.93;13.10;;;;;;;3.58;46.63;101162.19;2083485;28;20173;-67
2022/03/04 04:13:48;;;;;;;23.77;14.17;;;;;;;3.58;46.00;101167.69;2081652;28;20698;-67
2022/03/04 04:14:49;;;;;;;22.55;13.75;;;;;;;3.18;46.13;101107.25;2081240;28;20181;-67
2022/03/04 04:15:49;;;;;;;21.63;13.47;;;;;;;3.54;46.66;101164.09;2081327;28;20213;-67
2022/03/04 04:16:50;;;;;;;19.13;13.33;;;;;;;3.42;46.17;101155.31;2088132;28;20680;-67
2022/03/04 04:17:50;;;;;;;17.57;13.10;;;;;;;3.42;46.32;101149.84;2089673;28;20254;-67
2022/03/04 04:18:51;;;;;;;20.10;13.77;;;;;;;2.97;45.99;101076.84;2090165;28;20177;-67
2022/03/04 04:19:53;;;;;;;20.90;13.70;;;;;;;3.56;45.87;101164.53;2089959;28;20180;-67
2022/03/04 04:20:53;;;;;;;18.27;13.23;;;;;;;3.57;46.13;101160.63;2090030;28;20180;-67
2022/03/04 04:21:54;;;;;;;21.20;13.37;;;;;;;3.53;46.98;101159.78;2086699;28;20189;-67
2022/03/04 04:22:54;;;;;;;19.50;13.57;;;;;;;3.56;46.47;101158.25;2081743;28;20183;-67
2022/03/04 04:23:55;;;;;;;18.27;13.10;;;;;;;3.57;46.24;101171.59;2081829;28;20208;-67
2022/03/04 04:24:56;;;;;;;20.70;12.97;;;;;;;3.57;47.28;101163.38;2081820;28;20192;-67
2022/03/04 04:25:56;;;;;;;20.57;13.80;;;;;;;3.58;46.17;101170.44;2081694;28;20242;-67
2022/03/04 04:26:57;;;;;;;19.93;13.53;;;;;;;3.56;46.46;101166.47;2081818;28;20223;-67
2022/03/04 04:27:57;;;;;;;18.93;12.97;;;;;;;3.14;45.77;101102.91;2081478;28;20180;-67
2022/03/04 04:28:58;;;;;;;19.43;13.43;;;;;;;3.55;45.37;101167.66;2081753;28;20198;-67
2022/03/04 04:29:59;;;;;;;21.30;13.90;;;;;;;3.57;45.28;101173.53;2081881;28;20177;-67
2022/03/04 04:31:00;;;;;;;17.87;13.47;;;;;;;2.69;45.67;101040.09;2080617;28;20205;-67
2022/03/04 04:32:00;;;;;;;20.30;14.40;;;;;;;3.59;45.78;101176.72;2080147;28;20184;-67
2022/03/04 04:33:01;;;;;;;20.30;14.03;;;;;;;2.85;45.29;101066.13;2080021;28;20411;-67
2022/03/04 04:34:02;;;;;;;17.30;13.03;;;;;;;3.65;45.39;101173.25;2080233;28;20256;-67
2022/03/04 04:35:04;;;;;;;18.65;13.38;;;;;;;3.65;45.93;101177.97;2080279;28;20240;-67
2022/03/04 04:36:05;;;;;;;21.75;13.82;;;;;;;3.39;46.12;101145.13;2080276;28;20256;-67
2022/03/04 04:37:06;;;;;;;20.45;14.05;;;;;;;3.18;45.21;101104.53;2080276;28;20173;-66
2022/03/04 04:38:06;;;;;;;19.93;13.10;;;;;;;2.20;45.93;100962.75;2080324;28;20171;-66
2022/03/04 04:39:07;;;;;;;18.07;12.77;;;;;;;3.47;46.55;101152.25;2080564;28;20178;-67